Terminal Aerodrome Forecast
Issued by NWS Cleveland, OH

Home | Current Version | Previous Version | Text Only | Print | Product List | Glossary On
Versions: 1 2 3 4 5 6 7 8 9 10 11 12 13 14 15 16 17 18
000
FTUS41 KCLE 052339
TAFMFD
TAF
KMFD 052339Z 0600/0624 VRB03KT P6SM SCT150 BKN200
      TEMPO 0610/0613 4SM BR
     FM061700 25006KT P6SM SCT150 BKN200=

USA.gov is the U.S. government's official web portal to all federal, state and local government web resources and services.